Time;durP1;ratioP1;P1;durP2;ratioP2;P2;SDS_P1;SDS_P2;PMS_P1;PMS_P2;Temp;Humidity;BMP_temperature;BMP_pressure;BME280_temperature;BME280_humidity;BME280_pressure;Samples;Min_cycle;Max_cycle;Signal;HPM_P1;HPM_P2
2023/04/25 00:01:46;;;;;;;;;;;;;;;21.60;53.93;100098.78;4874017;29;4148;-67
2023/04/25 00:04:13;;;;;;;;;;;;;;;21.58;54.07;100107.38;4873173;29;4288;-68
2023/04/25 00:06:39;;;;;;;;;;;;;;;21.54;53.99;100101.47;4872993;29;5086;-67
2023/04/25 00:09:08;;;;;;;;;;;;;;;21.53;53.96;100100.00;4875375;29;4289;-68
2023/04/25 00:11:35;;;;;;;;;;;;;;;21.51;53.80;100097.09;4873685;29;4019;-68
2023/04/25 00:14:02;;;;;;;;;;;;;;;21.51;53.98;100103.56;4873678;29;4352;-67
2023/04/25 00:16:30;;;;;;;;;;;;;;;21.51;54.04;100102.84;4873046;29;5047;-68
2023/04/25 00:18:58;;;;;;;;;;;;;;;21.50;54.18;100101.34;4875547;29;4199;-67
2023/04/25 00:21:25;;;;;;;;;;;;;;;21.49;54.20;100105.66;4870542;29;4154;-69
2023/04/25 00:23:54;;;;;;;;;;;;;;;21.50;54.18;100112.88;4878231;29;4057;-69
2023/04/25 00:26:21;;;;;;;;;;;;;;;21.49;53.96;100111.41;4872321;29;4132;-69
2023/04/25 00:28:47;;;;;;;;;;;;;;;21.49;54.22;100105.66;4900849;29;3989;-69
2023/04/25 00:31:14;;;;;;;;;;;;;;;21.48;54.17;100104.19;4870299;29;4046;-68
2023/04/25 00:33:40;;;;;;;;;;;;;;;21.48;54.25;100104.19;4874817;29;4544;-69
2023/04/25 00:36:07;;;;;;;;;;;;;;;21.47;54.21;100109.22;4872882;29;4283;-69
2023/04/25 00:38:33;;;;;;;;;;;;;;;21.47;54.14;100108.47;4894318;29;4403;-69
2023/04/25 00:40:59;;;;;;;;;;;;;;;21.47;54.12;100102.72;4891493;29;4420;-69
2023/04/25 00:43:26;;;;;;;;;;;;;;;21.47;53.96;100099.84;4876202;29;4084;-70
2023/04/25 00:45:53;;;;;;;;;;;;;;;21.47;54.16;100099.84;4873984;29;4149;-69
2023/04/25 00:48:21;;;;;;;;;;;;;;;21.45;53.97;100096.91;4882614;29;4255;-69
2023/04/25 00:50:57;;;;;;;;;;;;;;;21.45;53.99;100099.78;4879049;29;4351;-69
2023/04/25 00:53:24;;;;;;;;;;;;;;;21.44;53.98;100093.28;4871296;29;3995;-69
2023/04/25 00:55:50;;;;;;;;;;;;;;;21.45;53.84;100094.00;4888834;29;4166;-69
2023/04/25 00:58:17;;;;;;;;;;;;;;;21.45;53.80;100099.78;4864195;29;4216;-69
2023/04/25 01:00:45;;;;;;;;;;;;;;;21.44;53.75;100095.41;4896441;29;4187;-69
2023/04/25 01:03:11;;;;;;;;;;;;;;;21.44;53.99;100098.28;4893711;29;4183;-68
2023/04/25 01:05:38;;;;;;;;;;;;;;;21.44;53.82;100093.28;4892790;29;4137;-68
2023/04/25 01:08:05;;;;;;;;;;;;;;;21.43;53.79;100097.56;4882768;29;4140;-69
2023/04/25 01:10:31;;;;;;;;;;;;;;;21.44;53.85;100092.53;4875664;29;4333;-70
2023/04/25 01:12:57;;;;;;;;;;;;;;;21.42;53.81;100095.38;4874865;29;4243;-69
2023/04/25 01:15:24;;;;;;;;;;;;;;;21.42;53.76;100089.63;4874327;29;4615;-69
2023/04/25 01:17:52;;;;;;;;;;;;;;;21.42;54.03;100095.38;4896354;29;4192;-69
2023/04/25 01:20:20;;;;;;;;;;;;;;;21.42;53.74;100084.59;4888315;29;4997;-69
2023/04/25 01:22:46;;;;;;;;;;;;;;;21.42;53.75;100078.09;4876864;29;4169;-68
2023/04/25 01:25:13;;;;;;;;;;;;;;;21.42;53.90;100083.84;4891510;29;4280;-69
2023/04/25 01:27:40;;;;;;;;;;;;;;;21.41;53.69;100079.47;4868400;29;4485;-69
2023/04/25 01:30:06;;;;;;;;;;;;;;;21.41;53.71;100073.72;4883198;29;3965;-68
2023/04/25 01:32:38;;;;;;;;;;;;;;;21.40;53.80;100075.88;4867094;29;4478;-69
2023/04/25 01:35:09;;;;;;;;;;;;;;;21.41;53.68;100076.59;4883487;29;3968;-69
2023/04/25 01:37:38;;;;;;;;;;;;;;;21.40;53.94;100086.63;4883057;29;4100;-69
2023/04/25 01:40:05;;;;;;;;;;;;;;;21.39;53.90;100085.16;4891600;29;4009;-68
2023/04/25 01:42:32;;;;;;;;;;;;;;;21.39;53.70;100076.50;4875229;29;4171;-69
2023/04/25 01:44:59;;;;;;;;;;;;;;;21.38;53.65;100077.94;4890604;29;4061;-69
2023/04/25 01:47:26;;;;;;;;;;;;;;;21.38;53.69;100075.06;4887034;29;4587;-69
2023/04/25 01:49:53;;;;;;;;;;;;;;;21.37;53.66;100076.44;4889726;29;4155;-69
2023/04/25 01:52:20;;;;;;;;;;;;;;;21.39;53.71;100076.50;4873247;29;4038;-69
2023/04/25 01:54:46;;;;;;;;;;;;;;;21.38;53.86;100081.53;4871994;29;4171;-69
2023/04/25 01:57:13;;;;;;;;;;;;;;;21.37;53.52;100079.34;4894953;29;4903;-68
2023/04/25 01:59:42;;;;;;;;;;;;;;;21.38;53.48;100077.94;4880817;29;4521;-68
2023/04/25 02:02:37;;;;;;;;;;;;;;;21.38;53.54;100072.19;4898324;29;4215;-68
2023/04/25 02:05:07;;;;;;;;;;;;;;;21.36;53.43;100081.47;4873413;29;3980;-68
2023/04/25 02:07:36;;;;;;;;;;;;;;;21.37;53.45;100082.22;4872535;29;4175;-68
2023/04/25 02:10:03;;;;;;;;;;;;;;;21.36;53.40;100081.47;4872405;29;4091;-67
2023/04/25 02:12:33;;;;;;;;;;;;;;;21.34;53.41;100078.53;4875124;29;4055;-68
2023/04/25 02:15:20;;;;;;;;;;;;;;;21.34;53.48;100085.03;4894948;29;4241;-68
2023/04/25 02:17:52;;;;;;;;;;;;;;;21.33;53.38;100074.94;4876191;29;3976;-68
2023/04/25 02:20:20;;;;;;;;;;;;;;;21.33;53.28;100077.81;4895258;29;4288;-68
2023/04/25 02:22:46;;;;;;;;;;;;;;;21.32;53.37;100070.56;4871990;29;4003;-68
2023/04/25 02:25:13;;;;;;;;;;;;;;;21.32;53.37;100069.84;4875284;29;4096;-68
2023/04/25 02:27:39;;;;;;;;;;;;;;;21.31;53.72;100068.38;4884709;29;4293;-68
2023/04/25 02:30:07;;;;;;;;;;;;;;;21.29;53.38;100069.03;4890860;29;4216;-68
2023/04/25 02:32:34;;;;;;;;;;;;;;;21.30;53.33;100076.28;4889680;29;4146;-68
2023/04/25 02:35:04;;;;;;;;;;;;;;;21.29;53.31;100071.91;4874296;29;4424;-68
2023/04/25 02:37:31;;;;;;;;;;;;;;;21.29;53.34;100071.19;4871715;29;4294;-68
2023/04/25 02:39:57;;;;;;;;;;;;;;;21.29;53.27;100066.16;4879493;29;4117;-68
2023/04/25 02:42:24;;;;;;;;;;;;;;;21.27;53.22;100066.09;4874752;29;4537;-68
2023/04/25 02:44:50;;;;;;;;;;;;;;;21.27;53.45;100080.50;4874118;29;4481;-68
2023/04/25 02:47:16;;;;;;;;;;;;;;;21.27;53.25;100074.00;4888816;29;4223;-68
2023/04/25 02:49:43;;;;;;;;;;;;;;;21.29;53.54;100071.91;4880967;29;4004;-68
2023/04/25 02:52:09;;;;;;;;;;;;;;;21.29;53.31;100077.69;4891241;29;4404;-68
2023/04/25 02:54:36;;;;;;;;;;;;;;;21.32;53.06;100064.06;4889319;29;4091;-68
2023/04/25 02:57:02;;;;;;;;;;;;;;;21.34;53.22;100073.50;4889009;29;4290;-68
2023/04/25 02:59:34;;;;;;;;;;;;;;;21.36;53.74;100066.34;4885145;29;5332;-68
2023/04/25 03:02:00;;;;;;;;;;;;;;;21.38;54.18;100061.38;4876370;29;4316;-72
2023/04/25 03:04:27;;;;;;;;;;;;;;;21.40;54.35;100069.34;4908488;29;4062;-77
2023/04/25 03:06:54;;;;;;;;;;;;;;;21.39;54.55;100068.59;4879071;29;4694;-77
2023/04/25 03:09:20;;;;;;;;;;;;;;;21.40;54.44;100066.47;4893745;29;3981;-77
2023/04/25 03:11:47;;;;;;;;;;;;;;;21.39;54.28;100073.63;4910571;29;4464;-78
2023/04/25 03:14:14;;;;;;;;;;;;;;;21.40;54.32;100069.34;4894842;29;3964;-76
2023/04/25 03:16:40;;;;;;;;;;;;;;;21.40;54.37;100070.13;4895514;29;4286;-77
2023/04/25 03:19:06;;;;;;;;;;;;;;;21.40;54.42;100064.34;4884390;29;5173;-78
2023/04/25 03:21:33;;;;;;;;;;;;;;;21.39;54.50;100067.88;4893018;29;3996;-77
2023/04/25 03:24:02;;;;;;;;;;;;;;;21.38;54.73;100072.19;4891279;29;4207;-76
2023/04/25 03:26:28;;;;;;;;;;;;;;;21.39;54.36;100071.47;4885654;29;4157;-77
2023/04/25 03:28:55;;;;;;;;;;;;;;;21.41;54.67;100079.47;4894485;29;4070;-77
2023/04/25 03:31:22;;;;;;;;;;;;;;;21.42;54.55;100078.09;4907138;29;4074;-77
2023/04/25 03:33:49;;;;;;;;;;;;;;;21.43;54.58;100079.53;4890625;29;4068;-78
2023/04/25 03:36:18;;;;;;;;;;;;;;;21.45;54.84;100079.59;4889522;29;3986;-78
2023/04/25 03:38:44;;;;;;;;;;;;;;;21.44;54.92;100075.25;4874743;29;4075;-77
2023/04/25 03:41:14;;;;;;;;;;;;;;;21.45;54.78;100076.72;4875778;29;4062;-78
2023/04/25 03:43:46;;;;;;;;;;;;;;;21.44;54.67;100075.25;4891610;29;4201;-77
2023/04/25 03:46:14;;;;;;;;;;;;;;;21.45;54.68;100076.72;4888608;29;3981;-78
2023/04/25 03:48:41;;;;;;;;;;;;;;;21.45;54.71;100076.72;4874433;29;4123;-78
2023/04/25 03:51:11;;;;;;;;;;;;;;;21.44;54.59;100075.25;4890665;29;4360;-78
2023/04/25 03:53:41;;;;;;;;;;;;;;;21.43;54.71;100074.50;4870913;29;4025;-77
2023/04/25 03:56:36;;;;;;;;;;;;;;;21.43;54.72;100082.44;4873692;29;4254;-78
2023/04/25 03:59:13;;;;;;;;;;;;;;;21.43;54.58;100082.44;4886942;29;4173;-78
2023/04/25 04:01:39;;;;;;;;;;;;;;;21.42;54.72;100078.81;4891933;29;4200;-78
2023/04/25 04:04:06;;;;;;;;;;;;;;;21.42;54.88;100089.63;4875600;29;4078;-78
2023/04/25 04:06:33;;;;;;;;;;;;;;;21.42;54.63;100083.84;4896012;29;4120;-78
2023/04/25 04:09:11;;;;;;;;;;;;;;;21.43;54.63;100096.81;4905024;29;4177;-78
2023/04/25 04:11:39;;;;;;;;;;;;;;;21.44;54.63;100098.28;4895656;29;4054;-78
2023/04/25 04:14:05;;;;;;;;;;;;;;;21.44;54.54;100090.41;4877754;29;3928;-77
2023/04/25 04:16:32;;;;;;;;;;;;;;;21.45;54.68;100088.25;4897990;29;3981;-78
2023/04/25 04:19:00;;;;;;;;;;;;;;;21.46;54.87;100095.47;4880740;29;4048;-77
2023/04/25 04:21:27;;;;;;;;;;;;;;;21.47;54.63;100091.19;4890765;29;4785;-78
2023/04/25 04:23:54;;;;;;;;;;;;;;;21.46;54.70;100098.34;4884603;29;3945;-78
2023/04/25 04:26:24;;;;;;;;;;;;;;;21.46;54.65;100101.22;4886086;29;4067;-78
2023/04/25 04:28:55;;;;;;;;;;;;;;;21.45;54.71;100094.00;4908177;29;4043;-77
2023/04/25 04:31:33;;;;;;;;;;;;;;;21.45;54.94;100111.28;4894407;29;4134;-76
2023/04/25 04:34:01;;;;;;;;;;;;;;;21.44;54.70;100107.69;4897440;29;4079;-78
2023/04/25 04:36:29;;;;;;;;;;;;;;;21.44;54.68;100109.81;4899304;29;4120;-78
2023/04/25 04:38:57;;;;;;;;;;;;;;;21.44;54.76;100109.81;4886780;29;3966;-79
2023/04/25 04:41:42;;;;;;;;;;;;;;;21.44;54.79;100115.56;4880503;29;4119;-78
2023/04/25 04:44:36;;;;;;;;;;;;;;;21.43;54.62;100117.00;4890087;29;4183;-78
2023/04/25 04:47:10;;;;;;;;;;;;;;;21.46;54.77;100115.63;4885937;29;4050;-78
2023/04/25 04:49:53;;;;;;;;;;;;;;;21.46;54.65;100112.75;4878284;29;4102;-78
2023/04/25 04:52:30;;;;;;;;;;;;;;;21.47;54.68;100120.00;4876327;29;4069;-78
2023/04/25 04:55:22;;;;;;;;;;;;;;;21.48;54.92;100118.56;4864832;29;4349;-77
2023/04/25 04:58:01;;;;;;;;;;;;;;;21.48;54.62;100127.22;4874812;29;4069;-77
2023/04/25 05:00:38;;;;;;;;;;;;;;;21.49;54.68;100125.81;4881619;29;4153;-76
2023/04/25 05:03:23;;;;;;;;;;;;;;;21.48;54.90;100127.22;4894735;29;4070;-78
2023/04/25 05:06:11;;;;;;;;;;;;;;;21.47;54.75;100120.00;4892233;29;4056;-78
2023/04/25 05:08:47;;;;;;;;;;;;;;;21.48;54.67;100127.22;4888856;29;4080;-78
2023/04/25 05:11:38;;;;;;;;;;;;;;;21.47;55.06;100131.53;4876084;29;4227;-77
2023/04/25 05:14:23;;;;;;;;;;;;;;;21.46;54.83;100136.56;4877817;29;4250;-77
2023/04/25 05:17:08;;;;;;;;;;;;;;;21.45;55.03;100135.06;4893208;29;4167;-77
2023/04/25 05:19:59;;;;;;;;;;;;;;;21.42;54.84;100127.06;4879023;29;5356;-76
2023/04/25 05:22:53;;;;;;;;;;;;;;;21.50;54.44;100133.03;4883597;29;4117;-71
2023/04/25 05:25:45;;;;;;;;;;;;;;;20.99;52.16;100132.16;4869611;29;4173;-80
2023/04/25 05:28:20;;;;;;;;;;;;;;;21.44;53.07;100132.84;4874905;29;4625;-73
2023/04/25 05:30:57;;;;;;;;;;;;;;;21.63;52.22;100126.25;4899696;29;4167;-71
2023/04/25 05:33:30;;;;;;;;;;;;;;;21.79;52.46;100119.47;4877277;29;4201;-72
2023/04/25 05:35:56;;;;;;;;;;;;;;;21.87;52.48;100131.22;4872635;29;5025;-71
2023/04/25 05:38:24;;;;;;;;;;;;;;;21.80;52.73;100132.47;4890293;29;4214;-73
2023/04/25 05:41:09;;;;;;;;;;;;;;;21.65;53.27;100134.94;4876286;29;4164;-81
2023/04/25 05:43:45;;;;;;;;;;;;;;;21.85;53.38;100136.94;4890475;29;4122;-81
2023/04/25 05:46:25;;;;;;;;;;;;;;;21.93;53.32;100140.06;4914066;29;4038;-80
2023/04/25 05:49:11;;;;;;;;;;;;;;;21.96;53.26;100138.69;4883586;29;4058;-80
2023/04/25 05:51:52;;;;;;;;;;;;;;;21.99;53.37;100146.00;4903673;29;4109;-78
2023/04/25 05:54:38;;;;;;;;;;;;;;;21.84;53.95;100144.84;4890786;29;4018;-78
2023/04/25 05:57:04;;;;;;;;;;;;;;;21.77;54.76;100146.09;4902519;29;4153;-78
2023/04/25 05:59:31;;;;;;;;;;;;;;;21.67;54.32;100143.66;4888420;29;4288;-76
2023/04/25 06:01:57;;;;;;;;;;;;;;;21.66;54.55;100150.09;4894045;29;4293;-78
2023/04/25 06:04:25;;;;;;;;;;;;;;;21.65;54.68;100155.13;4869769;29;4571;-79
2023/04/25 06:06:53;;;;;;;;;;;;;;;21.64;54.66;100156.50;4890408;29;4325;-79
2023/04/25 06:09:21;;;;;;;;;;;;;;;21.64;54.72;100156.50;4900669;29;4162;-79
2023/04/25 06:11:47;;;;;;;;;;;;;;;21.64;54.65;100162.28;4872295;29;4342;-78
2023/04/25 06:14:14;;;;;;;;;;;;;;;21.64;54.73;100167.31;4870773;29;4551;-79
2023/04/25 06:16:46;;;;;;;;;;;;;;;21.63;54.76;100165.84;4850759;29;974409;-79
2023/04/25 06:19:12;;;;;;;;;;;;;;;21.62;54.71;100165.09;4892161;29;4413;-77
2023/04/25 06:21:38;;;;;;;;;;;;;;;21.63;55.02;100171.59;4894381;29;4087;-78
2023/04/25 06:24:05;;;;;;;;;;;;;;;21.62;54.91;100176.63;4898869;29;4141;-78
2023/04/25 06:26:31;;;;;;;;;;;;;;;21.62;54.89;100170.13;4898516;29;4122;-78
2023/04/25 06:28:57;;;;;;;;;;;;;;;21.60;54.92;100173.69;4887932;29;4110;-82
2023/04/25 06:31:25;;;;;;;;;;;;;;;21.33;54.31;100172.09;4908004;29;4171;-77
2023/04/25 06:33:54;;;;;;;;;;;;;;;21.31;52.98;100167.00;4911532;29;4507;-78
2023/04/25 06:36:24;;;;;;;;;;;;;;;21.64;52.70;100175.94;4911788;29;4535;-75
2023/04/25 06:38:54;;;;;;;;;;;;;;;21.83;52.84;100180.84;4915906;29;4119;-76
2023/04/25 06:41:20;;;;;;;;;;;;;;;21.98;50.56;100182.00;4914528;29;4178;-75
2023/04/25 06:43:47;;;;;;;;;;;;;;;21.94;49.38;100181.88;4909630;29;4017;-75
2023/04/25 06:46:32;;;;;;;;;;;;;;;21.90;49.79;100187.53;4901336;29;4197;-75
2023/04/25 06:48:59;;;;;;;;;;;;;;;21.92;48.69;100184.69;4914233;29;4172;-75
2023/04/25 06:51:28;;;;;;;;;;;;;;;21.81;48.71;100183.69;4898850;29;4320;-75
2023/04/25 06:53:55;;;;;;;;;;;;;;;21.77;48.28;100191.47;4913394;29;4167;-75
2023/04/25 06:56:29;;;;;;;;;;;;;;;21.73;47.80;100192.06;4907900;29;4198;-75
2023/04/25 06:59:01;;;;;;;;;;;;;;;21.63;47.33;100189.63;4900317;29;4214;-75
2023/04/25 07:01:33;;;;;;;;;;;;;;;21.61;47.28;100198.19;4902659;29;4292;-74
2023/04/25 07:04:03;;;;;;;;;;;;;;;21.58;47.05;100193.78;4895566;29;3984;-82
2023/04/25 07:06:31;;;;;;;;;;;;;;;21.81;46.43;100197.34;4900778;29;4164;-78
2023/04/25 07:08:58;;;;;;;;;;;;;;;21.96;46.28;100197.06;4903258;29;4349;-76
2023/04/25 07:11:24;;;;;;;;;;;;;;;21.99;46.07;100206.53;4896597;29;4269;-75
2023/04/25 07:13:51;;;;;;;;;;;;;;;21.57;45.80;100208.88;4895329;29;4294;-79
2023/04/25 07:16:17;;;;;;;;;;;;;;;21.53;45.54;100215.22;4911463;29;4064;-80
2023/04/25 07:18:45;;;;;;;;;;;;;;;21.49;45.23;100209.34;4905677;29;3988;-79
2023/04/25 07:21:12;;;;;;;;;;;;;;;21.78;45.75;100218.84;4902772;29;4313;-79
2023/04/25 07:23:40;;;;;;;;;;;;;;;21.68;44.94;100214.25;4885780;29;4289;-74
2023/04/25 07:26:11;;;;;;;;;;;;;;;21.42;44.21;100216.34;4910123;29;4100;-73
2023/04/25 07:28:51;;;;;;;;;;;;;;;21.24;44.05;100220.06;4918823;29;4060;-74
2023/04/25 07:31:20;;;;;;;;;;;;;;;21.45;44.08;100220.75;4906913;29;4059;-74
2023/04/25 07:33:47;;;;;;;;;;;;;;;21.40;44.04;100219.13;4900708;29;4305;-78
2023/04/25 07:36:15;;;;;;;;;;;;;;;21.44;43.43;100225.00;4907353;29;5099;-75
2023/04/25 07:38:41;;;;;;;;;;;;;;;21.05;44.14;100221.59;4904785;29;4043;-75
2023/04/25 07:41:08;;;;;;;;;;;;;;;21.02;44.70;100233.72;4879110;29;4137;-74
2023/04/25 07:43:34;;;;;;;;;;;;;;;21.08;44.74;100233.94;4873313;29;4231;-74
2023/04/25 07:46:02;;;;;;;;;;;;;;;21.17;44.65;100238.53;4885352;29;4090;-75
2023/04/25 07:48:31;;;;;;;;;;;;;;;21.11;44.63;100246.97;4886286;29;4276;-76
2023/04/25 07:50:58;;;;;;;;;;;;;;;21.17;44.42;100247.19;4870604;29;4122;-74
2023/04/25 07:53:24;;;;;;;;;;;;;;;21.07;44.68;100252.59;4886509;29;4090;-74
2023/04/25 07:55:55;;;;;;;;;;;;;;;21.04;44.13;100253.94;4881712;29;5498;-75
2023/04/25 07:58:21;;;;;;;;;;;;;;;21.01;43.95;100258.16;4910996;29;4477;-73
2023/04/25 08:00:53;;;;;;;;;;;;;;;21.15;43.67;100263.66;4891433;29;4469;-75
2023/04/25 08:03:37;;;;;;;;;;;;;;;21.03;43.05;100258.97;4898118;29;4508;-76
2023/04/25 08:06:10;;;;;;;;;;;;;;;21.07;43.28;100269.84;4906610;29;4276;-82
2023/04/25 08:08:51;;;;;;;;;;;;;;;20.61;41.06;100267.56;4892780;29;5426;-80
2023/04/25 08:11:21;;;;;;;;;;;;;;;20.96;41.03;100271.66;4907115;29;4680;-79
2023/04/25 08:13:47;;;;;;;;;;;;;;;21.04;41.01;100265.44;4897959;29;4901;-79
2023/04/25 08:16:14;;;;;;;;;;;;;;;21.16;40.25;100268.72;4876285;29;5420;-79
2023/04/25 08:18:41;;;;;;;;;;;;;;;21.21;40.31;100270.34;4906308;29;4295;-77
2023/04/25 08:21:11;;;;;;;;;;;;;;;21.40;40.14;100276.72;4877586;29;4069;-79
2023/04/25 08:23:38;;;;;;;;;;;;;;;21.55;40.03;100270.03;4898623;29;4132;-79
2023/04/25 08:26:13;;;;;;;;;;;;;;;21.54;40.39;100280.09;4899567;29;4082;-78
2023/04/25 08:28:41;;;;;;;;;;;;;;;21.51;40.10;100281.44;4885442;29;4609;-80
2023/04/25 08:31:07;;;;;;;;;;;;;;;21.59;40.47;100293.22;4877907;29;4225;-80
2023/04/25 08:33:52;;;;;;;;;;;;;;;18.34;39.03;100296.38;4894412;29;4062;-83
2023/04/25 08:36:22;;;;;;;;;;;;;;;16.42;41.25;100298.31;4880939;29;4386;-83
2023/04/25 08:39:13;;;;;;;;;;;;;;;16.36;41.91;100309.44;4901023;29;4159;-84
2023/04/25 08:41:47;;;;;;;;;;;;;;;19.35;40.37;100301.47;4914311;29;4280;-84
2023/04/25 08:44:14;;;;;;;;;;;;;;;20.38;40.28;100296.88;4886483;29;4074;-83
2023/04/25 08:46:40;;;;;;;;;;;;;;;20.87;41.35;100302.31;4880712;29;4094;-79
2023/04/25 08:49:27;;;;;;;;;;;;;;;21.51;41.29;100307.38;4877378;29;4155;-79
2023/04/25 08:51:54;;;;;;;;;;;;;;;21.70;41.48;100302.91;4878325;29;4133;-80
2023/04/25 08:54:23;;;;;;;;;;;;;;;21.79;41.43;100307.53;4889649;29;4043;-80
2023/04/25 08:57:02;;;;;;;;;;;;;;;21.89;41.81;100310.72;4883609;29;4328;-79
2023/04/25 08:59:28;;;;;;;;;;;;;;;21.94;42.14;100300.81;4874308;29;5267;-83
2023/04/25 09:01:55;;;;;;;;;;;;;;;21.81;42.92;100313.38;4893067;29;4085;-81
2023/04/25 09:04:21;;;;;;;;;;;;;;;21.91;43.08;100310.78;4897986;29;4014;-74
2023/04/25 09:06:48;;;;;;;;;;;;;;;21.93;43.48;100313.00;4906262;29;4145;-71
2023/04/25 09:09:15;;;;;;;;;;;;;;;22.06;43.80;100314.88;4906671;29;4120;-70
2023/04/25 09:11:43;;;;;;;;;;;;;;;22.20;43.60;100322.47;4904049;29;4065;-70
2023/04/25 09:14:12;;;;;;;;;;;;;;;22.29;43.46;100330.00;4908237;29;4072;-70
2023/04/25 09:17:00;;;;;;;;;;;;;;;22.43;43.51;100332.56;4877398;29;4111;-71
2023/04/25 09:19:40;;;;;;;;;;;;;;;22.31;43.54;100321.38;4876342;29;4261;-71
2023/04/25 09:22:18;;;;;;;;;;;;;;;22.25;43.98;100326.97;4889628;29;4016;-70
2023/04/25 09:24:45;;;;;;;;;;;;;;;22.10;44.20;100326.50;4876103;29;4219;-71
2023/04/25 09:27:13;;;;;;;;;;;;;;;22.04;44.99;100329.22;4872341;29;4138;-69
2023/04/25 09:29:40;;;;;;;;;;;;;;;22.08;44.89;100340.88;4871625;29;4362;-71
2023/04/25 09:32:20;;;;;;;;;;;;;;;22.11;45.17;100345.28;4892315;29;4503;-71
2023/04/25 09:34:50;;;;;;;;;;;;;;;22.23;45.23;100336.28;4888327;29;4418;-67
2023/04/25 09:37:18;;;;;;;;;;;;;;;22.21;44.96;100341.25;4882519;29;4342;-70
2023/04/25 09:40:05;;;;;;;;;;;;;;;22.22;44.90;100348.50;4892094;29;4078;-70
2023/04/25 09:42:35;;;;;;;;;;;;;;;22.14;45.20;100343.94;4900688;29;4116;-71
2023/04/25 09:45:02;;;;;;;;;;;;;;;22.21;45.30;100353.53;4893584;29;4155;-72
2023/04/25 09:47:30;;;;;;;;;;;;;;;22.26;45.43;100348.63;4901414;29;4179;-71
2023/04/25 09:49:59;;;;;;;;;;;;;;;22.34;44.88;100354.66;4897760;29;4129;-71
2023/04/25 09:52:25;;;;;;;;;;;;;;;22.41;45.28;100353.41;4891834;29;4220;-69
2023/04/25 09:55:02;;;;;;;;;;;;;;;22.34;45.18;100354.66;4886044;29;4394;-70
2023/04/25 09:57:31;;;;;;;;;;;;;;;22.35;45.10;100350.34;4875176;29;4789;-69
2023/04/25 09:59:58;;;;;;;;;;;;;;;22.20;45.49;100345.56;4880930;29;4257;-70
2023/04/25 10:02:29;;;;;;;;;;;;;;;22.18;45.40;100355.59;4875225;29;4143;-69
2023/04/25 10:05:05;;;;;;;;;;;;;;;22.17;45.54;100362.03;4886087;29;4457;-69
2023/04/25 10:07:38;;;;;;;;;;;;;;;22.21;45.83;100358.53;4896304;29;5423;-69
2023/04/25 10:10:08;;;;;;;;;;;;;;;22.20;45.78;100346.28;4910398;29;4056;-70
2023/04/25 10:12:34;;;;;;;;;;;;;;;22.41;45.85;100364.97;4894055;29;4018;-72
2023/04/25 10:15:01;;;;;;;;;;;;;;;22.57;45.33;100371.22;4893173;29;3954;-69
2023/04/25 10:17:27;;;;;;;;;;;;;;;22.63;45.50;100361.25;4895596;29;4184;-68
2023/04/25 10:19:54;;;;;;;;;;;;;;;22.42;45.74;100374.34;4891730;29;4055;-68
2023/04/25 10:22:23;;;;;;;;;;;;;;;22.35;45.91;100370.53;4894078;29;4289;-68
2023/04/25 10:24:49;;;;;;;;;;;;;;;22.14;45.77;100374.91;4875394;29;4335;-69
2023/04/25 10:27:16;;;;;;;;;;;;;;;22.43;45.56;100373.69;4890192;29;4666;-69
2023/04/25 10:29:45;;;;;;;;;;;;;;;22.53;45.68;100370.34;4874927;29;4118;-69
2023/04/25 10:32:11;;;;;;;;;;;;;;;22.27;45.88;100379.69;4873284;29;4375;-67
2023/04/25 10:34:39;;;;;;;;;;;;;;;22.21;45.89;100381.63;4880218;29;4411;-67
2023/04/25 10:37:08;;;;;;;;;;;;;;;22.18;46.12;100378.66;4870966;29;4045;-68
2023/04/25 10:39:34;;;;;;;;;;;;;;;22.19;46.23;100370.75;4881119;29;3996;-68
2023/04/25 10:42:02;;;;;;;;;;;;;;;22.07;46.25;100368.22;4879882;29;4146;-69
2023/04/25 10:44:28;;;;;;;;;;;;;;;22.04;45.81;100378.22;4875523;29;4145;-70
2023/04/25 10:46:55;;;;;;;;;;;;;;;22.11;44.57;100385.66;4872545;29;4238;-69
2023/04/25 10:49:32;;;;;;;;;;;;;;;22.19;44.37;100385.16;4875175;29;4112;-68
2023/04/25 10:52:17;;;;;;;;;;;;;;;22.30;44.76;100384.09;4873015;29;4215;-68
2023/04/25 10:54:47;;;;;;;;;;;;;;;22.35;44.89;100391.47;4874090;29;4058;-68
2023/04/25 10:57:33;;;;;;;;;;;;;;;22.35;44.77;100385.69;4868296;29;4340;-68
2023/04/25 11:00:00;;;;;;;;;;;;;;;22.29;45.30;100379.03;4888986;29;4121;-68
2023/04/25 11:02:30;;;;;;;;;;;;;;;22.14;45.77;100407.38;4876502;29;4191;-70
2023/04/25 11:04:57;;;;;;;;;;;;;;;22.12;45.88;100413.06;4905012;29;3995;-68
2023/04/25 11:07:37;;;;;;;;;;;;;;;21.94;44.55;100413.25;4870739;29;4781;-73
2023/04/25 11:10:04;;;;;;;;;;;;;;;22.05;43.56;100416.44;4869369;29;7104;-70
2023/04/25 11:12:31;;;;;;;;;;;;;;;22.15;43.92;100426.16;4875571;29;4353;-72
2023/04/25 11:14:58;;;;;;;;;;;;;;;22.08;44.71;100427.38;4887636;29;4062;-71
2023/04/25 11:17:25;;;;;;;;;;;;;;;22.20;45.39;100421.25;4872449;29;4190;-70
2023/04/25 11:19:51;;;;;;;;;;;;;;;22.21;45.80;100433.53;4869158;29;4567;-71
2023/04/25 11:22:18;;;;;;;;;;;;;;;22.10;45.83;100430.31;4873308;29;4230;-71
2023/04/25 11:24:44;;;;;;;;;;;;;;;22.12;46.11;100444.78;4872993;29;4629;-70
2023/04/25 11:27:10;;;;;;;;;;;;;;;22.12;46.23;100444.06;4875582;29;4201;-71
2023/04/25 11:29:37;;;;;;;;;;;;;;;22.24;46.00;100440.84;4890330;29;4368;-71
2023/04/25 11:32:03;;;;;;;;;;;;;;;22.25;46.08;100439.47;4889335;29;4037;-72
2023/04/25 11:34:30;;;;;;;;;;;;;;;22.11;46.56;100437.56;4896871;29;4194;-71
2023/04/25 11:36:57;;;;;;;;;;;;;;;22.05;46.77;100440.22;4896101;29;4139;-72
2023/04/25 11:39:23;;;;;;;;;;;;;;;22.20;47.08;100444.34;4890723;29;4747;-71
2023/04/25 11:41:50;;;;;;;;;;;;;;;22.39;46.61;100442.78;4891832;29;4243;-70
2023/04/25 11:44:16;;;;;;;;;;;;;;;22.41;46.43;100442.13;4909226;29;4008;-71
2023/04/25 11:46:43;;;;;;;;;;;;;;;22.42;46.57;100447.19;4888495;29;4821;-72
2023/04/25 11:49:09;;;;;;;;;;;;;;;22.45;47.07;100451.63;4878706;29;4685;-72
2023/04/25 11:51:43;;;;;;;;;;;;;;;22.51;46.85;100453.97;4872425;29;4307;-69
2023/04/25 11:54:09;;;;;;;;;;;;;;;22.41;46.39;100450.78;4876732;29;5096;-69
2023/04/25 11:56:35;;;;;;;;;;;;;;;22.16;43.68;100462.22;4891002;29;4047;-69
2023/04/25 11:59:03;;;;;;;;;;;;;;;22.27;43.27;100451.06;4896240;29;4144;-69
2023/04/25 12:01:30;;;;;;;;;;;;;;;22.14;45.85;100453.50;4877847;29;4182;-71
2023/04/25 12:04:30;;;;;;;;;;;;;;;22.35;45.55;100457.06;4876578;29;4022;-70
2023/04/25 12:06:56;;;;;;;;;;;;;;;22.49;45.87;100463.28;4869899;29;4158;-72
2023/04/25 12:09:30;;;;;;;;;;;;;;;22.43;46.71;100459.50;4875107;29;6655;-69
2023/04/25 12:11:57;;;;;;;;;;;;;;;22.35;47.35;100462.84;4875812;29;4258;-69
2023/04/25 12:14:28;;;;;;;;;;;;;;;22.31;47.71;100462.72;4873368;29;4372;-72
2023/04/25 12:16:55;;;;;;;;;;;;;;;22.29;47.90;100468.44;4874874;29;4298;-73
2023/04/25 12:19:22;;;;;;;;;;;;;;;22.35;47.91;100463.56;4877222;29;4682;-72
2023/04/25 12:21:48;;;;;;;;;;;;;;;22.43;47.99;100471.75;4879305;29;4302;-68
2023/04/25 12:24:25;;;;;;;;;;;;;;;22.63;47.37;100468.03;4888469;29;4152;-68
2023/04/25 12:26:52;;;;;;;;;;;;;;;22.73;47.13;100471.25;4873888;29;4043;-68
2023/04/25 12:29:22;;;;;;;;;;;;;;;22.77;47.46;100480.03;4872456;29;4475;-69
2023/04/25 12:31:53;;;;;;;;;;;;;;;22.82;47.24;100475.13;4877998;29;4110;-68
2023/04/25 12:34:19;;;;;;;;;;;;;;;22.84;47.35;100484.56;4872124;29;4197;-68
2023/04/25 12:36:46;;;;;;;;;;;;;;;22.82;47.29;100487.38;4872839;29;3988;-68
2023/04/25 12:39:21;;;;;;;;;;;;;;;22.82;47.05;100475.84;4876225;29;4126;-69
2023/04/25 12:41:48;;;;;;;;;;;;;;;22.91;47.13;100474.69;4878802;29;3955;-69
2023/04/25 12:44:15;;;;;;;;;;;;;;;22.90;47.09;100478.22;4876915;29;4125;-69
2023/04/25 12:46:41;;;;;;;;;;;;;;;22.77;47.40;100480.03;4880301;29;4030;-70
2023/04/25 12:49:08;;;;;;;;;;;;;;;22.77;47.21;100482.91;4894940;29;4981;-70
2023/04/25 12:51:44;;;;;;;;;;;;;;;22.70;47.59;100481.22;4901181;29;4062;-71
2023/04/25 12:54:10;;;;;;;;;;;;;;;22.70;47.73;100481.22;4895126;29;4194;-71
2023/04/25 12:56:37;;;;;;;;;;;;;;;22.73;47.94;100479.91;4900288;29;4183;-70
2023/04/25 12:59:03;;;;;;;;;;;;;;;22.72;47.98;100496.47;4901816;29;4292;-71
2023/04/25 13:01:29;;;;;;;;;;;;;;;22.75;47.66;100482.84;4896929;29;4613;-70
2023/04/25 13:03:56;;;;;;;;;;;;;;;22.78;48.16;100485.09;4899707;29;4422;-71